Time;durP1;ratioP1;P1;durP2;ratioP2;P2;SDS_P1;SDS_P2;PMS_P1;PMS_P2;Temp;Humidity;BMP_temperature;BMP_pressure;BME280_temperature;BME280_humidity;BME280_pressure;Samples;Min_cycle;Max_cycle;Signal;HPM_P1;HPM_P2
2023/12/29 00:00:21;;;;;;;7.72;2.38;;;10.20;99.90;;;;;;5010847;28;20373;-66
2023/12/29 00:02:48;;;;;;;7.28;2.10;;;10.20;99.90;;;;;;5011817;28;20402;-66
2023/12/29 00:05:14;;;;;;;10.93;2.00;;;10.20;99.90;;;;;;5011686;28;20433;-66
2023/12/29 00:07:41;;;;;;;10.07;2.28;;;10.10;99.90;;;;;;5010321;28;20068;-66
2023/12/29 00:10:08;;;;;;;7.65;2.20;;;10.10;99.90;;;;;;5011687;28;20054;-66
2023/12/29 00:12:34;;;;;;;7.55;2.47;;;10.00;99.90;;;;;;5011215;28;20054;-66
2023/12/29 00:15:01;;;;;;;10.68;2.50;;;10.00;99.90;;;;;;5006880;28;20141;-66
2023/12/29 00:17:27;;;;;;;6.35;2.22;;;9.90;99.90;;;;;;4990669;28;20077;-66
2023/12/29 00:19:53;;;;;;;7.28;2.42;;;10.00;99.90;;;;;;4990803;28;20046;-66
2023/12/29 00:22:27;;;;;;;11.75;2.50;;;9.90;99.90;;;;;;4991105;28;20144;-66
2023/12/29 00:24:53;;;;;;;11.68;2.58;;;9.90;99.90;;;;;;4999220;28;20053;-65
2023/12/29 00:27:20;;;;;;;9.82;2.22;;;10.00;99.90;;;;;;5010121;28;20053;-66
2023/12/29 00:29:46;;;;;;;8.88;2.10;;;9.90;99.90;;;;;;5010152;28;20079;-66
2023/12/29 00:32:14;;;;;;;6.60;2.15;;;9.90;99.90;;;;;;5010067;28;20408;-66
2023/12/29 00:34:40;;;;;;;11.93;2.85;;;9.90;99.90;;;;;;5011420;28;20081;-66
2023/12/29 00:37:08;;;;;;;10.57;2.40;;;9.90;99.90;;;;;;5009713;28;20070;-66
2023/12/29 00:39:38;;;;;;;8.07;2.45;;;9.80;99.90;;;;;;5009846;28;20367;-66
2023/12/29 00:42:08;;;;;;;12.05;3.17;;;9.90;99.90;;;;;;5010134;28;20356;-66
2023/12/29 00:44:35;;;;;;;8.27;2.38;;;9.80;99.90;;;;;;4993403;28;20050;-65
2023/12/29 00:47:01;;;;;;;10.27;2.65;;;9.90;99.90;;;;;;4993343;28;20053;-65
2023/12/29 00:49:27;;;;;;;10.65;2.58;;;9.80;99.90;;;;;;5010110;28;20092;-66
2023/12/29 00:51:54;;;;;;;11.73;2.85;;;9.80;99.90;;;;;;5010185;28;20148;-66
2023/12/29 00:54:20;;;;;;;11.55;3.03;;;9.80;99.90;;;;;;5010638;28;20054;-66
2023/12/29 00:56:50;;;;;;;10.93;2.80;;;10.00;99.90;;;;;;5009275;28;20390;-66
2023/12/29 00:59:19;;;;;;;9.73;2.72;;;9.80;99.90;;;;;;4993330;28;20586;-66
2023/12/29 01:01:46;;;;;;;10.00;2.78;;;9.80;99.90;;;;;;4993872;28;20060;-66
2023/12/29 01:04:12;;;;;;;8.35;2.33;;;9.80;99.90;;;;;;5009238;28;20073;-66
2023/12/29 01:06:40;;;;;;;9.88;2.72;;;9.80;99.90;;;;;;5009394;28;20085;-67
2023/12/29 01:09:08;;;;;;;9.60;2.55;;;9.80;99.90;;;;;;5009666;28;20050;-67
2023/12/29 01:11:35;;;;;;;11.13;2.67;;;9.80;99.90;;;;;;5010183;28;20069;-67
2023/12/29 01:14:01;;;;;;;13.65;2.95;;;9.80;99.90;;;;;;5009395;28;20374;-66
2023/12/29 01:16:31;;;;;;;8.65;2.53;;;9.80;99.90;;;;;;5009129;28;20495;-66
2023/12/29 01:18:58;;;;;;;7.50;2.53;;;9.90;99.90;;;;;;4993196;28;20386;-67
2023/12/29 01:21:26;;;;;;;10.55;3.25;;;9.90;99.90;;;;;;4993219;28;20056;-66
2023/12/29 01:23:52;;;;;;;9.52;2.75;;;9.90;99.90;;;;;;5009946;28;20064;-66
2023/12/29 01:26:22;;;;;;;10.82;2.53;;;9.90;99.90;;;;;;4992894;28;20057;-67
2023/12/29 01:28:48;;;;;;;11.75;2.90;;;9.90;99.90;;;;;;5009544;28;20042;-67
2023/12/29 01:31:14;;;;;;;7.03;2.00;;;9.90;99.90;;;;;;5010301;28;20065;-67
2023/12/29 01:33:40;;;;;;;7.63;2.10;;;9.90;99.90;;;;;;5010294;28;20053;-67
2023/12/29 01:36:07;;;;;;;7.32;2.03;;;10.00;99.90;;;;;;5005128;28;20057;-67
2023/12/29 01:38:34;;;;;;;8.73;2.13;;;10.00;99.90;;;;;;4989625;28;20054;-67
2023/12/29 01:41:00;;;;;;;9.52;2.70;;;10.00;99.90;;;;;;4989355;28;20145;-66
2023/12/29 01:43:27;;;;;;;7.35;2.50;;;9.90;99.90;;;;;;4989668;28;20046;-68
2023/12/29 01:45:54;;;;;;;10.55;2.92;;;9.90;99.90;;;;;;5004872;28;20059;-66
2023/12/29 01:48:23;;;;;;;8.73;3.20;;;9.90;99.90;;;;;;4993281;28;20057;-67
2023/12/29 01:50:53;;;;;;;8.75;2.80;;;9.90;99.90;;;;;;4992789;28;20099;-67
2023/12/29 01:53:20;;;;;;;7.32;2.80;;;9.90;99.90;;;;;;5009233;28;20352;-67
2023/12/29 01:55:46;;;;;;;9.30;2.58;;;9.90;99.90;;;;;;5007903;28;20057;-68
2023/12/29 01:58:13;;;;;;;10.98;3.28;;;9.90;99.90;;;;;;5008754;28;20057;-67
2023/12/29 02:00:40;;;;;;;10.10;2.63;;;10.00;99.90;;;;;;5009087;28;20046;-67
2023/12/29 02:03:07;;;;;;;8.82;2.70;;;10.00;99.90;;;;;;5008832;28;20290;-67
2023/12/29 02:05:35;;;;;;;8.32;2.65;;;10.00;99.90;;;;;;5008801;28;20065;-67
2023/12/29 02:08:02;;;;;;;12.73;2.80;;;10.00;99.90;;;;;;4991984;28;20061;-68
2023/12/29 02:10:28;;;;;;;11.73;2.30;;;10.10;99.90;;;;;;5008904;28;20057;-67
2023/12/29 02:12:57;;;;;;;11.38;3.13;;;10.10;99.90;;;;;;5009943;28;20490;-67
2023/12/29 02:15:23;;;;;;;8.65;2.40;;;10.10;99.90;;;;;;5008421;28;20054;-67
2023/12/29 02:18:02;;;;;;;9.50;2.72;;;10.00;99.90;;;;;;5008490;28;20088;-67
2023/12/29 02:20:29;;;;;;;10.65;2.90;;;10.10;99.90;;;;;;4992506;28;20065;-67
2023/12/29 02:22:55;;;;;;;7.75;2.40;;;10.10;99.90;;;;;;5009802;28;20054;-67
2023/12/29 02:25:22;;;;;;;9.60;2.40;;;10.10;99.90;;;;;;5008488;28;20481;-67
2023/12/29 02:27:48;;;;;;;12.80;2.83;;;10.20;99.90;;;;;;5008703;28;20148;-67
2023/12/29 02:30:23;;;;;;;11.60;3.03;;;10.20;99.90;;;;;;5009072;28;20455;-67
2023/12/29 02:32:53;;;;;;;10.32;2.78;;;10.20;99.90;;;;;;5010176;28;20112;-67
2023/12/29 02:35:24;;;;;;;7.43;2.67;;;10.20;99.90;;;;;;5010490;28;20060;-68
2023/12/29 02:37:52;;;;;;;9.68;2.95;;;10.30;99.90;;;;;;5012422;28;20058;-68
2023/12/29 02:40:19;;;;;;;12.07;3.05;;;10.30;99.90;;;;;;4996454;28;20355;-68
2023/12/29 02:42:49;;;;;;;11.32;3.10;;;10.20;99.90;;;;;;5012401;28;20451;-67
2023/12/29 02:45:16;;;;;;;9.02;3.35;;;10.30;99.90;;;;;;4995792;28;20057;-67
2023/12/29 02:47:43;;;;;;;9.57;2.50;;;10.30;99.90;;;;;;5011843;28;20184;-67
2023/12/29 02:50:11;;;;;;;11.20;2.95;;;10.30;99.90;;;;;;5013120;28;20085;-67
2023/12/29 02:52:37;;;;;;;9.68;2.97;;;10.20;99.90;;;;;;5028630;28;20064;-67
2023/12/29 02:55:04;;;;;;;10.20;3.28;;;10.20;99.90;;;;;;5012675;28;20367;-67
2023/12/29 02:57:30;;;;;;;9.63;3.00;;;10.20;99.90;;;;;;4995205;28;20062;-67
2023/12/29 02:59:57;;;;;;;11.48;3.10;;;10.10;99.90;;;;;;5011800;28;20060;-67
2023/12/29 03:02:24;;;;;;;8.95;2.83;;;10.10;99.90;;;;;;5012061;28;20054;-67
2023/12/29 03:04:51;;;;;;;9.65;2.45;;;10.00;99.90;;;;;;4995457;28;20045;-67
2023/12/29 03:07:17;;;;;;;6.03;2.60;;;10.00;99.90;;;;;;5011569;28;20045;-67
2023/12/29 03:09:44;;;;;;;8.90;3.60;;;10.00;99.90;;;;;;5012118;28;20080;-66
2023/12/29 03:12:10;;;;;;;6.85;2.47;;;9.90;99.90;;;;;;5011467;28;20053;-67
2023/12/29 03:14:36;;;;;;;11.95;2.85;;;9.80;99.90;;;;;;5011498;28;20354;-67
2023/12/29 03:17:03;;;;;;;10.48;2.50;;;9.70;99.90;;;;;;5011164;28;20499;-67
2023/12/29 03:19:30;;;;;;;7.50;2.90;;;9.70;99.90;;;;;;5011543;28;20061;-67
2023/12/29 03:21:56;;;;;;;8.13;2.47;;;9.70;99.90;;;;;;5012435;28;20054;-66
2023/12/29 03:24:23;;;;;;;6.43;2.70;;;9.70;99.90;;;;;;4994646;28;20378;-68
2023/12/29 03:26:50;;;;;;;7.53;2.47;;;9.70;99.90;;;;;;5011185;28;20057;-66
2023/12/29 03:29:17;;;;;;;8.00;2.90;;;9.80;99.90;;;;;;5012209;28;20370;-67
2023/12/29 03:31:43;;;;;;;7.80;2.85;;;9.70;99.90;;;;;;5011655;28;20262;-67
2023/12/29 03:34:09;;;;;;;7.68;2.55;;;9.70;99.90;;;;;;5012435;28;20088;-67
2023/12/29 03:36:36;;;;;;;8.02;3.17;;;9.70;99.90;;;;;;5011153;28;20358;-68
2023/12/29 03:39:02;;;;;;;7.97;2.85;;;9.70;99.90;;;;;;5011159;28;20065;-67
2023/12/29 03:41:29;;;;;;;10.77;3.17;;;9.70;99.90;;;;;;5011001;28;20058;-67
2023/12/29 03:43:56;;;;;;;10.48;2.90;;;9.70;99.90;;;;;;5011235;28;20277;-66
2023/12/29 03:46:23;;;;;;;10.73;2.95;;;9.80;99.90;;;;;;5009673;28;20497;-67
2023/12/29 03:48:49;;;;;;;9.98;2.88;;;9.80;99.90;;;;;;5011231;28;20049;-67
2023/12/29 03:51:16;;;;;;;13.25;2.85;;;9.80;99.90;;;;;;5012107;28;20057;-67
2023/12/29 03:53:43;;;;;;;8.70;3.13;;;9.90;99.90;;;;;;4995187;28;20137;-67
2023/12/29 03:56:16;;;;;;;9.70;3.25;;;9.90;99.90;;;;;;5010938;28;20473;-67
2023/12/29 03:58:44;;;;;;;13.50;4.07;;;9.80;99.90;;;;;;5010788;28;20064;-67
2023/12/29 04:01:11;;;;;;;12.10;3.72;;;9.90;99.90;;;;;;5011062;28;20046;-66
2023/12/29 04:03:38;;;;;;;20.90;4.97;;;9.80;99.90;;;;;;4994538;28;20490;-67
2023/12/29 04:06:06;;;;;;;15.40;3.92;;;9.70;99.90;;;;;;5010146;28;20046;-67
2023/12/29 04:08:33;;;;;;;14.23;2.90;;;9.70;99.90;;;;;;5011571;28;20042;-66
2023/12/29 04:11:01;;;;;;;16.33;4.50;;;9.60;99.90;;;;;;5010785;28;20096;-66
2023/12/29 04:13:28;;;;;;;11.15;2.70;;;9.60;99.90;;;;;;4994300;28;20065;-67
2023/12/29 04:15:54;;;;;;;13.38;3.85;;;9.60;99.90;;;;;;5009268;28;20459;-67
2023/12/29 04:18:22;;;;;;;16.45;3.70;;;9.60;99.90;;;;;;5011765;28;20161;-67
2023/12/29 04:20:49;;;;;;;14.68;3.95;;;9.60;99.90;;;;;;5010052;28;20339;-67
2023/12/29 04:23:16;;;;;;;16.35;3.33;;;9.60;99.90;;;;;;5009907;28;20046;-67
2023/12/29 04:25:42;;;;;;;14.82;3.60;;;9.70;99.90;;;;;;5007793;28;20375;-67
2023/12/29 04:28:09;;;;;;;16.35;3.83;;;9.60;99.90;;;;;;5008460;28;20046;-68
2023/12/29 04:30:36;;;;;;;13.27;3.50;;;9.70;99.90;;;;;;5009823;28;20068;-67
2023/12/29 04:33:03;;;;;;;12.15;3.35;;;9.70;99.90;;;;;;5010016;28;20048;-67
2023/12/29 04:35:30;;;;;;;14.90;3.60;;;9.70;99.90;;;;;;5009074;28;20530;-67
2023/12/29 04:37:56;;;;;;;12.70;2.72;;;9.60;99.90;;;;;;4993473;28;20050;-68
2023/12/29 04:40:24;;;;;;;13.48;2.80;;;9.60;99.90;;;;;;5010153;28;20065;-67
2023/12/29 04:42:50;;;;;;;11.40;3.17;;;9.60;99.90;;;;;;5010136;28;20057;-68
2023/12/29 04:45:17;;;;;;;10.95;2.65;;;9.70;99.90;;;;;;5009936;28;20050;-67
2023/12/29 04:47:43;;;;;;;14.20;3.13;;;9.60;99.90;;;;;;5010850;28;20060;-67
2023/12/29 04:50:09;;;;;;;14.07;3.30;;;9.60;99.90;;;;;;5010154;28;20129;-68
2023/12/29 04:52:37;;;;;;;10.18;3.28;;;9.60;99.90;;;;;;5009901;28;20054;-68
2023/12/29 04:55:03;;;;;;;11.77;3.00;;;9.60;99.90;;;;;;4992720;28;20057;-68
2023/12/29 04:57:30;;;;;;;17.08;4.13;;;9.60;99.90;;;;;;5008974;28;20058;-68
2023/12/29 05:00:01;;;;;;;16.60;3.40;;;9.60;99.90;;;;;;4993298;28;20057;-67
2023/12/29 05:02:27;;;;;;;13.98;3.15;;;9.60;99.90;;;;;;5009892;28;20068;-67
2023/12/29 05:04:53;;;;;;;14.25;2.63;;;9.60;99.90;;;;;;5010235;28;20390;-67
2023/12/29 05:07:21;;;;;;;18.52;3.47;;;9.60;99.90;;;;;;5008968;28;20346;-68
2023/12/29 05:09:48;;;;;;;11.52;2.63;;;9.50;99.90;;;;;;5009750;28;20463;-68
2023/12/29 05:12:15;;;;;;;13.32;2.85;;;9.60;99.90;;;;;;5009012;28;20058;-69
2023/12/29 05:14:41;;;;;;;16.73;3.13;;;9.60;99.90;;;;;;5025047;28;20488;-68
2023/12/29 05:17:10;;;;;;;16.40;2.70;;;9.50;99.90;;;;;;5009130;28;20052;-68
2023/12/29 05:19:36;;;;;;;14.73;3.72;;;9.50;99.90;;;;;;5009593;28;20053;-68
2023/12/29 05:22:03;;;;;;;17.48;3.28;;;9.50;99.90;;;;;;5009409;28;20073;-68
2023/12/29 05:24:29;;;;;;;13.48;3.42;;;9.50;99.90;;;;;;5009331;28;20167;-68
2023/12/29 05:26:55;;;;;;;14.02;3.63;;;9.50;99.90;;;;;;5008747;28;20050;-68
2023/12/29 05:29:22;;;;;;;12.73;2.83;;;9.50;99.90;;;;;;5009498;28;20050;-67
2023/12/29 05:31:48;;;;;;;15.55;2.92;;;9.50;99.90;;;;;;5009397;28;20067;-68
2023/12/29 05:34:15;;;;;;;14.15;2.65;;;9.60;99.90;;;;;;5008894;28;20152;-68
2023/12/29 05:36:42;;;;;;;15.35;4.07;;;9.60;99.90;;;;;;4992445;28;20064;-68
2023/12/29 05:39:08;;;;;;;14.23;2.92;;;9.60;99.90;;;;;;5009096;28;20352;-69
2023/12/29 05:41:34;;;;;;;14.15;2.70;;;9.50;99.90;;;;;;5009969;28;20458;-68
2023/12/29 05:44:01;;;;;;;19.55;3.42;;;9.60;99.90;;;;;;5008985;28;20413;-68
2023/12/29 05:46:27;;;;;;;10.25;2.72;;;9.50;99.90;;;;;;5008339;28;20050;-68
2023/12/29 05:48:54;;;;;;;12.15;3.20;;;9.50;99.90;;;;;;5009404;28;20367;-68
2023/12/29 05:51:22;;;;;;;16.70;3.45;;;9.60;99.90;;;;;;5009073;28;20052;-68
2023/12/29 05:53:48;;;;;;;16.80;3.40;;;9.60;99.90;;;;;;5009274;28;20063;-68
2023/12/29 05:56:15;;;;;;;15.73;2.95;;;9.60;99.90;;;;;;5008080;28;20069;-68
2023/12/29 05:58:43;;;;;;;18.73;3.92;;;9.70;99.90;;;;;;5009068;28;20131;-69
2023/12/29 06:01:10;;;;;;;18.23;4.15;;;9.70;99.90;;;;;;4992523;28;20056;-68
2023/12/29 06:03:38;;;;;;;16.83;3.40;;;9.70;99.90;;;;;;5009042;28;20112;-68
2023/12/29 06:06:04;;;;;;;20.88;3.33;;;9.70;99.90;;;;;;4992424;28;20038;-68
2023/12/29 06:08:31;;;;;;;17.30;3.33;;;9.70;99.90;;;;;;4992939;28;20050;-68
2023/12/29 06:10:57;;;;;;;14.98;3.47;;;9.70;99.90;;;;;;5014327;28;20058;-68
2023/12/29 06:13:24;;;;;;;21.40;3.53;;;9.70;99.90;;;;;;5015109;28;20064;-69
2023/12/29 06:15:50;;;;;;;16.92;3.35;;;9.70;99.90;;;;;;4998389;28;20053;-68
2023/12/29 06:18:16;;;;;;;22.10;3.75;;;9.80;99.90;;;;;;5015449;28;20053;-68
2023/12/29 06:20:43;;;;;;;15.63;3.35;;;9.80;99.90;;;;;;4998621;28;20057;-68
2023/12/29 06:23:09;;;;;;;17.48;3.95;;;9.70;99.90;;;;;;4999222;28;20053;-68
2023/12/29 06:25:35;;;;;;;19.83;3.53;;;9.70;99.90;;;;;;5014757;28;20042;-68
2023/12/29 06:28:03;;;;;;;17.67;4.10;;;9.70;99.90;;;;;;4999030;28;20060;-68
2023/12/29 06:30:29;;;;;;;14.93;3.30;;;9.70;99.90;;;;;;4998615;28;20054;-68
2023/12/29 06:32:56;;;;;;;14.05;3.55;;;9.70;99.90;;;;;;5015193;28;20497;-68
2023/12/29 06:35:26;;;;;;;18.33;4.60;;;9.60;99.90;;;;;;5014510;28;20060;-68
2023/12/29 06:37:52;;;;;;;14.18;3.42;;;9.70;99.90;;;;;;5015383;28;20061;-68
2023/12/29 06:40:19;;;;;;;16.88;3.63;;;9.70;99.90;;;;;;5015025;28;20269;-68
2023/12/29 06:42:45;;;;;;;19.48;3.00;;;9.70;99.90;;;;;;5014838;28;20068;-69
2023/12/29 06:45:11;;;;;;;20.55;3.50;;;9.70;99.90;;;;;;5014154;28;20377;-68
2023/12/29 06:47:37;;;;;;;18.20;4.47;;;9.70;99.90;;;;;;5014764;28;20078;-68
2023/12/29 06:50:06;;;;;;;22.75;3.95;;;9.70;99.90;;;;;;5014746;28;20485;-68
2023/12/29 06:52:34;;;;;;;17.75;3.30;;;9.70;99.90;;;;;;4998465;28;20463;-68
2023/12/29 06:55:01;;;;;;;19.42;4.53;;;9.70;99.90;;;;;;5031056;28;20377;-68
2023/12/29 06:57:27;;;;;;;19.08;3.60;;;9.60;99.90;;;;;;5014113;28;20375;-67
2023/12/29 06:59:54;;;;;;;20.48;3.97;;;9.70;99.90;;;;;;5014700;28;20455;-68
2023/12/29 07:02:20;;;;;;;22.10;4.45;;;9.60;99.90;;;;;;5014766;28;20049;-67
2023/12/29 07:04:46;;;;;;;17.67;4.00;;;9.70;99.90;;;;;;5014593;28;20050;-68
2023/12/29 07:07:13;;;;;;;18.00;3.30;;;9.60;99.90;;;;;;5014323;28;20701;-68
2023/12/29 07:09:40;;;;;;;19.50;4.07;;;9.60;99.90;;;;;;5014884;28;20105;-68
2023/12/29 07:12:07;;;;;;;16.05;3.22;;;9.60;99.90;;;;;;4998955;28;20053;-68
2023/12/29 07:14:35;;;;;;;17.98;3.78;;;9.60;99.90;;;;;;5014376;28;20072;-67
2023/12/29 07:17:02;;;;;;;21.30;3.65;;;9.60;99.90;;;;;;4998181;28;20095;-67
2023/12/29 07:19:36;;;;;;;18.52;3.75;;;9.60;99.90;;;;;;5014721;28;20497;-67
2023/12/29 07:22:07;;;;;;;20.42;3.72;;;9.60;99.90;;;;;;5010882;28;20534;-67
2023/12/29 07:24:35;;;;;;;17.05;3.38;;;9.60;99.90;;;;;;4994781;28;20367;-67
2023/12/29 07:27:02;;;;;;;17.63;3.45;;;9.60;99.90;;;;;;4994620;28;20080;-68
2023/12/29 07:29:30;;;;;;;12.02;3.38;;;9.60;99.90;;;;;;5011665;28;20082;-68
2023/12/29 07:31:56;;;;;;;18.85;4.07;;;9.60;99.90;;;;;;5011228;28;20081;-67
2023/12/29 07:34:22;;;;;;;15.32;3.13;;;9.60;99.90;;;;;;5011274;28;20061;-68
2023/12/29 07:36:49;;;;;;;13.75;3.10;;;9.60;99.90;;;;;;5011872;28;20072;-68
2023/12/29 07:39:15;;;;;;;16.45;4.32;;;9.50;99.90;;;;;;5011474;28;20054;-68
2023/12/29 07:41:42;;;;;;;16.20;3.92;;;9.60;99.90;;;;;;4994813;28;20056;-68
2023/12/29 07:44:11;;;;;;;21.48;3.83;;;9.60;99.90;;;;;;5011579;28;20459;-65
2023/12/29 07:46:38;;;;;;;16.33;3.38;;;9.70;99.90;;;;;;4993980;28;20063;-65
2023/12/29 07:49:05;;;;;;;16.15;3.33;;;9.60;99.90;;;;;;4994662;28;20049;-68
2023/12/29 07:51:33;;;;;;;13.13;3.22;;;9.70;99.90;;;;;;4994696;28;20058;-68
2023/12/29 07:53:59;;;;;;;18.83;3.92;;;9.60;99.90;;;;;;5010784;28;20049;-69
2023/12/29 07:56:26;;;;;;;20.27;4.30;;;9.70;99.90;;;;;;4990498;28;20069;-68
2023/12/29 07:58:52;;;;;;;8.40;2.60;;;9.70;99.90;;;;;;4991653;28;20058;-68
2023/12/29 08:01:18;;;;;;;13.57;2.97;;;9.80;99.90;;;;;;4991212;28;20047;-68
2023/12/29 08:03:45;;;;;;;14.70;3.25;;;9.80;99.90;;;;;;4975206;28;20046;-69
2023/12/29 08:06:12;;;;;;;14.00;3.42;;;9.80;99.90;;;;;;5005775;28;20062;-69
2023/12/29 08:08:40;;;;;;;10.63;2.80;;;9.80;99.90;;;;;;4994549;28;20046;-67
2023/12/29 08:11:18;;;;;;;13.07;3.20;;;9.90;99.90;;;;;;4994304;28;20056;-67
2023/12/29 08:13:47;;;;;;;11.43;2.83;;;9.90;99.90;;;;;;4994486;28;20049;-68
2023/12/29 08:16:17;;;;;;;14.85;3.10;;;9.90;99.90;;;;;;4993695;28;20064;-68
2023/12/29 08:18:44;;;;;;;11.30;2.92;;;9.90;99.90;;;;;;4994017;28;20054;-68
2023/12/29 08:21:18;;;;;;;16.42;3.20;;;9.90;99.90;;;;;;5010325;28;20547;-68
2023/12/29 08:23:48;;;;;;;11.68;2.80;;;9.90;99.90;;;;;;4994053;28;20057;-68
2023/12/29 08:26:15;;;;;;;15.25;3.17;;;9.90;99.90;;;;;;5009717;28;20081;-67
2023/12/29 08:28:41;;;;;;;16.25;3.28;;;9.90;99.90;;;;;;5010127;28;20049;-68
2023/12/29 08:31:09;;;;;;;12.38;3.00;;;9.90;99.90;;;;;;5010351;28;20485;-68
2023/12/29 08:33:35;;;;;;;10.63;2.70;;;9.90;99.90;;;;;;5009539;28;20149;-68
2023/12/29 08:36:06;;;;;;;15.55;3.15;;;9.90;99.90;;;;;;5009410;28;20068;-67
2023/12/29 08:38:34;;;;;;;11.90;3.50;;;9.90;99.90;;;;;;5010317;28;20080;-68
2023/12/29 08:41:00;;;;;;;9.73;2.53;;;9.90;99.90;;;;;;4993683;28;20398;-68
2023/12/29 08:43:27;;;;;;;10.45;2.92;;;9.80;99.90;;;;;;5009896;28;20046;-68
2023/12/29 08:45:54;;;;;;;9.68;3.00;;;9.90;99.90;;;;;;5009218;28;20125;-68
2023/12/29 08:48:21;;;;;;;10.57;3.42;;;9.90;99.90;;;;;;5010012;28;20054;-68
2023/12/29 08:50:49;;;;;;;10.52;2.38;;;9.90;99.90;;;;;;5010171;28;20050;-68
2023/12/29 08:53:17;;;;;;;7.55;3.17;;;9.90;99.90;;;;;;5009583;28;20057;-68
2023/12/29 08:55:43;;;;;;;8.27;2.75;;;9.90;99.90;;;;;;4993038;28;20062;-68
2023/12/29 08:58:10;;;;;;;11.68;2.70;;;9.90;99.90;;;;;;5009447;28;20052;-68
2023/12/29 09:00:37;;;;;;;8.13;2.78;;;9.90;99.90;;;;;;5026031;28;20363;-67
2023/12/29 09:03:03;;;;;;;9.98;2.45;;;9.90;99.90;;;;;;5009516;28;20061;-68
2023/12/29 09:05:29;;;;;;;10.85;3.10;;;9.90;99.90;;;;;;4992540;28;20049;-67
2023/12/29 09:07:57;;;;;;;7.95;2.80;;;9.90;99.90;;;;;;5009544;28;20466;-68
2023/12/29 09:10:24;;;;;;;10.93;3.45;;;9.90;99.90;;;;;;4993256;28;20061;-68
2023/12/29 09:12:51;;;;;;;10.63;3.10;;;9.90;99.90;;;;;;5009511;28;20050;-67
2023/12/29 09:15:18;;;;;;;8.82;2.67;;;9.90;99.90;;;;;;5009166;28;20497;-67
2023/12/29 09:17:44;;;;;;;9.43;3.55;;;9.90;99.90;;;;;;5010065;28;20418;-68
2023/12/29 09:20:11;;;;;;;6.15;2.40;;;10.00;99.90;;;;;;5009707;28;20053;-68
2023/12/29 09:22:38;;;;;;;9.93;3.20;;;10.00;99.90;;;;;;5009075;28;20061;-68
2023/12/29 09:25:05;;;;;;;8.13;2.70;;;10.00;99.90;;;;;;5008708;28;20049;-68
2023/12/29 09:27:32;;;;;;;7.72;2.65;;;10.00;99.90;;;;;;4993007;28;20096;-68
2023/12/29 09:29:58;;;;;;;7.75;3.13;;;10.00;99.90;;;;;;5009336;28;20398;-66
2023/12/29 09:32:24;;;;;;;14.25;3.10;;;10.00;99.90;;;;;;5009271;28;20132;-67
2023/12/29 09:34:51;;;;;;;10.50;2.75;;;10.00;99.90;;;;;;5009076;28;20148;-67
2023/12/29 09:37:18;;;;;;;10.52;2.67;;;10.00;99.90;;;;;;4992662;28;20064;-67
2023/12/29 09:39:47;;;;;;;13.45;3.08;;;10.10;99.90;;;;;;5009313;28;20058;-67
2023/12/29 09:42:22;;;;;;;8.57;2.30;;;10.00;99.90;;;;;;5008816;28;20058;-67
2023/12/29 09:44:52;;;;;;;7.28;2.75;;;10.10;99.90;;;;;;4992186;28;20069;-67
2023/12/29 09:47:27;;;;;;;10.10;2.25;;;9.90;99.90;;;;;;4992986;28;20069;-67
2023/12/29 09:49:54;;;;;;;9.55;2.60;;;10.10;99.90;;;;;;5009084;28;20054;-66
2023/12/29 09:52:22;;;;;;;8.85;2.63;;;10.00;99.90;;;;;;5008874;28;20144;-67
2023/12/29 09:54:52;;;;;;;10.07;2.45;;;10.00;99.90;;;;;;5009258;28;20057;-67
2023/12/29 09:57:19;;;;;;;9.27;2.78;;;9.90;99.90;;;;;;4992423;28;20045;-67
2023/12/29 09:59:51;;;;;;;6.63;2.20;;;9.90;99.90;;;;;;5009025;28;20049;-66
2023/12/29 10:02:19;;;;;;;7.50;1.77;;;9.70;99.90;;;;;;4993223;28;20037;-66
2023/12/29 10:04:45;;;;;;;6.38;1.80;;;9.60;99.90;;;;;;5008491;28;20366;-67
2023/12/29 10:07:20;;;;;;;8.88;1.80;;;9.40;99.90;;;;;;5009368;28;20057;-67
2023/12/29 10:09:50;;;;;;;6.75;2.30;;;9.30;99.90;;;;;;4992347;28;20046;-67
2023/12/29 10:12:17;;;;;;;8.55;1.90;;;9.20;99.90;;;;;;5008994;28;20050;-67
2023/12/29 10:14:55;;;;;;;4.82;1.80;;;9.00;99.90;;;;;;5008317;28;20431;-67
2023/12/29 10:17:43;;;;;;;5.88;1.50;;;8.80;99.90;;;;;;4992705;28;20081;-67
2023/12/29 10:20:42;;;;;;;14.55;3.55;;;8.60;99.90;;;;;;5008634;28;20053;-67
2023/12/29 10:23:16;;;;;;;7.75;2.30;;;8.50;99.90;;;;;;4994977;28;20407;-67
2023/12/29 10:25:46;;;;;;;7.68;2.13;;;8.50;99.90;;;;;;5008297;28;20137;-67
2023/12/29 10:28:13;;;;;;;9.57;2.70;;;8.50;99.90;;;;;;5008361;28;20485;-67
2023/12/29 10:30:40;;;;;;;11.32;2.83;;;8.50;99.90;;;;;;5008708;28;20054;-67
2023/12/29 10:33:08;;;;;;;6.53;2.00;;;8.60;99.90;;;;;;4992178;28;20137;-67
2023/12/29 10:35:38;;;;;;;5.65;2.00;;;8.70;99.90;;;;;;5007988;28;20054;-67
2023/12/29 10:38:10;;;;;;;9.60;2.40;;;8.90;99.90;;;;;;4992255;28;20053;-67
2023/12/29 10:40:38;;;;;;;9.32;2.10;;;9.10;99.90;;;;;;4992014;28;20054;-68
2023/12/29 10:43:07;;;;;;;7.25;2.88;;;9.20;99.90;;;;;;5008232;28;20116;-67
2023/12/29 10:45:41;;;;;;;8.40;2.72;;;9.20;99.90;;;;;;5007610;28;20046;-67
2023/12/29 10:48:08;;;;;;;10.82;3.30;;;9.30;99.90;;;;;;4992337;28;20056;-67
2023/12/29 10:50:46;;;;;;;16.48;4.10;;;9.40;99.90;;;;;;4992075;28;20050;-67
2023/12/29 10:53:19;;;;;;;13.55;3.13;;;9.50;99.90;;;;;;4992131;28;20830;-67
2023/12/29 10:55:45;;;;;;;9.75;3.00;;;9.50;99.90;;;;;;4992311;28;20470;-67
2023/12/29 10:58:11;;;;;;;11.45;2.53;;;9.60;99.90;;;;;;5011896;28;20386;-67
2023/12/29 11:00:39;;;;;;;9.10;2.53;;;9.60;99.90;;;;;;5012086;28;20049;-67
2023/12/29 11:03:06;;;;;;;12.82;2.45;;;9.70;99.90;;;;;;5011779;28;20061;-68
2023/12/29 11:05:33;;;;;;;14.85;3.72;;;9.80;99.90;;;;;;5011486;28;20148;-67
2023/12/29 11:08:01;;;;;;;14.32;3.15;;;9.80;99.90;;;;;;5011615;28;20050;-67
2023/12/29 11:10:31;;;;;;;11.93;2.38;;;9.80;99.90;;;;;;4995455;28;20069;-67
2023/12/29 11:12:59;;;;;;;8.00;2.63;;;9.80;99.90;;;;;;4995657;28;20054;-68
2023/12/29 11:15:27;;;;;;;14.15;2.60;;;9.80;99.90;;;;;;5011001;28;20651;-67
2023/12/29 11:17:56;;;;;;;11.63;3.47;;;9.90;99.90;;;;;;5011962;28;20053;-67
2023/12/29 11:20:26;;;;;;;15.48;3.10;;;9.90;99.90;;;;;;4995603;28;20064;-67
2023/12/29 11:22:53;;;;;;;13.10;3.58;;;10.00;99.90;;;;;;4995229;28;20165;-66
2023/12/29 11:25:21;;;;;;;13.55;3.78;;;10.00;99.90;;;;;;5011172;28;20473;-67
2023/12/29 11:27:49;;;;;;;16.90;2.95;;;10.00;99.90;;;;;;5011756;28;20073;-67
2023/12/29 11:30:16;;;;;;;14.82;3.35;;;10.10;99.90;;;;;;5011636;28;20054;-68
2023/12/29 11:32:54;;;;;;;15.68;3.38;;;10.10;99.90;;;;;;5011370;28;20058;-67
2023/12/29 11:35:37;;;;;;;12.02;2.55;;;10.10;99.90;;;;;;5011039;28;20056;-67
2023/12/29 11:38:20;;;;;;;16.85;3.33;;;10.20;99.90;;;;;;5010918;28;20328;-67
2023/12/29 11:41:01;;;;;;;13.77;3.28;;;10.20;99.90;;;;;;4994905;28;20046;-67
2023/12/29 11:43:28;;;;;;;13.90;2.45;;;10.20;99.90;;;;;;5011124;28;20054;-67
2023/12/29 11:45:55;;;;;;;12.77;2.90;;;10.20;99.90;;;;;;5010537;28;20069;-67
2023/12/29 11:48:53;;;;;;;13.43;3.58;;;10.20;99.90;;;;;;4995087;28;20054;-67
2023/12/29 11:51:44;;;;;;;10.35;2.45;;;10.30;99.90;;;;;;4994832;28;20054;-67
2023/12/29 11:54:21;;;;;;;12.13;2.88;;;10.30;99.90;;;;;;5005923;28;20057;-67
2023/12/29 11:56:47;;;;;;;11.70;3.22;;;10.30;99.90;;;;;;5010337;28;20069;-67
2023/12/29 11:59:23;;;;;;;10.25;2.75;;;10.40;99.90;;;;;;5010795;28;20061;-67
2023/12/29 12:01:54;;;;;;;11.68;2.97;;;10.40;99.90;;;;;;5011182;28;20053;-67
2023/12/29 12:04:40;;;;;;;13.77;3.28;;;10.40;99.90;;;;;;5011485;28;20069;-67
2023/12/29 12:07:31;;;;;;;8.98;2.30;;;10.40;99.90;;;;;;4990561;28;20493;-67
2023/12/29 12:10:22;;;;;;;6.90;2.53;;;10.40;99.90;;;;;;5007308;28;20057;-67
2023/12/29 12:12:51;;;;;;;10.75;3.15;;;10.40;99.90;;;;;;5007639;28;20090;-68
2023/12/29 12:15:38;;;;;;;10.57;2.90;;;10.40;99.90;;;;;;4977357;28;20054;-67
2023/12/29 12:18:09;;;;;;;18.13;3.88;;;10.40;99.90;;;;;;4992091;28;20073;-68
2023/12/29 12:20:36;;;;;;;10.82;2.30;;;10.30;99.90;;;;;;4990853;28;20158;-67
2023/12/29 12:23:17;;;;;;;14.45;3.55;;;10.40;99.90;;;;;;4990879;28;20464;-68
2023/12/29 12:25:46;;;;;;;11.13;2.67;;;10.40;99.90;;;;;;4983791;28;20049;-67
2023/12/29 12:28:14;;;;;;;12.43;2.55;;;10.50;99.90;;;;;;5010395;28;20056;-67
2023/12/29 12:30:41;;;;;;;13.73;2.38;;;10.50;99.90;;;;;;4993922;28;20146;-67
2023/12/29 12:33:11;;;;;;;11.40;3.17;;;10.40;99.90;;;;;;5010247;28;20141;-67
2023/12/29 12:35:37;;;;;;;14.18;3.42;;;10.60;99.90;;;;;;4993442;28;20053;-67
2023/12/29 12:38:24;;;;;;;8.77;2.85;;;10.50;99.90;;;;;;5010268;28;20064;-67
2023/12/29 12:40:50;;;;;;;9.60;3.08;;;10.50;99.90;;;;;;5010246;28;20053;-67
2023/12/29 12:43:17;;;;;;;10.57;2.97;;;10.50;99.90;;;;;;5010169;28;20046;-67
2023/12/29 12:46:02;;;;;;;7.10;2.17;;;10.50;99.90;;;;;;5009656;28;20049;-67
2023/12/29 12:48:40;;;;;;;9.02;2.17;;;10.50;99.90;;;;;;5010146;28;20136;-67
2023/12/29 12:51:06;;;;;;;8.55;2.05;;;10.40;99.90;;;;;;5009766;28;20053;-67
2023/12/29 12:53:33;;;;;;;10.48;2.65;;;10.30;99.90;;;;;;5009943;28;20161;-67